Time;durP1;ratioP1;P1;durP2;ratioP2;P2;SDS_P1;SDS_P2;PMS_P1;PMS_P2;Temp;Humidity;BMP_temperature;BMP_pressure;BME280_temperature;BME280_humidity;BME280_pressure;Samples;Min_cycle;Max_cycle;Signal;HPM_P1;HPM_P2
2023/03/22 06:00:48;;;;;;;;;2.33;1.00;;;;;-147.14;100.00;58812.66;5864358;22;46442;-57
2023/03/22 06:03:14;;;;;;;;;2.00;2.00;;;;;-147.14;100.00;58812.66;5009941;28;46987;-58
2023/03/22 06:05:39;;;;;;;;;3.33;1.33;;;;;-147.14;100.00;58812.66;5017894;28;45686;-57
2023/03/22 06:08:05;;;;;;;;;2.00;1.33;;;;;-147.14;100.00;58812.66;5019804;28;45290;-59
2023/03/22 06:10:30;;;;;;;;;2.33;1.33;;;;;-147.14;100.00;58812.66;5025335;28;45525;-58
2023/03/22 06:12:55;;;;;;;;;4.00;2.00;;;;;-147.14;100.00;58812.66;5017218;28;73210;-58
2023/03/22 06:15:21;;;;;;;;;2.33;2.00;;;;;-147.14;100.00;58812.66;5034476;28;45440;-58
2023/03/22 06:17:47;;;;;;;;;1.67;1.00;;;;;-147.14;100.00;58812.66;5002910;28;45639;-58
2023/03/22 06:20:13;;;;;;;;;4.67;2.00;;;;;-147.14;100.00;58812.66;5028749;28;58239;-59
2023/03/22 06:22:40;;;;;;;;;6.33;2.67;;;;;-147.14;100.00;58812.66;5016546;28;45761;-58
2023/03/22 06:25:06;;;;;;;;;2.67;2.67;;;;;-147.14;100.00;58812.66;5028859;28;45395;-58
2023/03/22 06:27:32;;;;;;;;;1.00;1.00;;;;;-147.14;100.00;58812.66;5032211;28;45277;-58
2023/03/22 06:29:57;;;;;;;;;2.00;2.00;;;;;-147.14;100.00;58812.66;5018282;28;46397;-58
2023/03/22 06:32:23;;;;;;;;;2.00;2.00;;;;;-147.14;100.00;58812.66;5035386;28;46010;-58
2023/03/22 06:34:53;;;;;;;;;5.00;2.00;;;;;-147.14;100.00;58812.66;5016508;28;45484;-58
2023/03/22 06:37:18;;;;;;;;;3.33;1.33;;;;;-147.14;100.00;58812.66;5001627;28;45409;-58
2023/03/22 06:39:44;;;;;;;;;4.00;2.00;;;;;-147.14;100.00;58812.66;5025323;28;59821;-58
2023/03/22 06:42:09;;;;;;;;;3.33;3.33;;;;;-147.14;100.00;58812.66;5037131;28;47892;-57
2023/03/22 06:44:35;;;;;;;;;2.33;2.33;;;;;-147.14;100.00;58812.66;5028950;28;45469;-58
2023/03/22 06:47:00;;;;;;;;;3.67;3.00;;;;;-147.14;100.00;58812.66;5026030;28;45484;-58
2023/03/22 06:49:26;;;;;;;;;3.00;3.00;;;;;-147.14;100.00;58812.66;5017688;28;46655;-58
2023/03/22 06:51:52;;;;;;;;;4.67;3.67;;;;;-147.14;100.00;58812.66;5019371;28;45643;-58
2023/03/22 06:54:17;;;;;;;;;7.33;4.00;;;;;-147.14;100.00;58812.66;5019115;28;45526;-59
2023/03/22 06:56:42;;;;;;;;;7.00;4.33;;;;;-147.14;100.00;58812.66;5029980;28;67211;-58
2023/03/22 06:59:08;;;;;;;;;5.00;4.00;;;;;-147.14;100.00;58812.66;5031047;28;45454;-58
2023/03/22 07:01:33;;;;;;;;;7.00;4.00;;;;;-147.14;100.00;58812.66;5014424;28;76123;-58
2023/03/22 07:03:58;;;;;;;;;7.67;4.33;;;;;-147.14;100.00;58812.66;5019340;28;46080;-58
2023/03/22 07:06:24;;;;;;;;;9.67;6.33;;;;;-147.14;100.00;58812.66;5028348;28;66266;-58
2023/03/22 07:08:49;;;;;;;;;5.33;2.33;;;;;-147.14;100.00;58812.66;5031911;28;45557;-58
2023/03/22 07:11:15;;;;;;;;;6.00;4.00;;;;;-147.14;100.00;58812.66;5034389;28;69805;-58
2023/03/22 07:13:40;;;;;;;;;7.67;5.00;;;;;-147.14;100.00;58812.66;5017401;28;45750;-58
2023/03/22 07:16:06;;;;;;;;;7.00;4.67;;;;;-147.14;100.00;58812.66;5038885;28;45611;-56
2023/03/22 07:18:31;;;;;;;;;4.00;4.00;;;;;-147.14;100.00;58812.66;5021100;28;45727;-56
2023/03/22 07:20:57;;;;;;;;;8.00;5.67;;;;;-147.14;100.00;58812.66;5036840;28;72722;-57
2023/03/22 07:23:22;;;;;;;;;4.67;3.67;;;;;-147.14;100.00;58812.66;5036823;28;67830;-57
2023/03/22 07:25:48;;;;;;;;;6.33;4.00;;;;;-147.14;100.00;58812.66;5025370;28;45949;-57
2023/03/22 07:28:14;;;;;;;;;4.00;4.00;;;;;-147.14;100.00;58812.66;5039913;28;45480;-56
2023/03/22 07:30:40;;;;;;;;;7.00;6.00;;;;;-147.14;100.00;58812.66;5026149;28;45347;-57
2023/03/22 07:33:06;;;;;;;;;6.33;4.00;;;;;-147.14;100.00;58812.66;5030237;28;45560;-58
2023/03/22 07:35:32;;;;;;;;;4.67;4.67;;;;;-147.14;100.00;58812.66;5018961;28;45451;-57
2023/03/22 07:37:58;;;;;;;;;3.67;3.67;;;;;-147.14;100.00;58812.66;5015047;28;45380;-57
2023/03/22 07:40:24;;;;;;;;;7.00;3.67;;;;;-147.14;100.00;58812.66;5034070;28;46358;-55
2023/03/22 07:42:49;;;;;;;;;5.00;5.00;;;;;-147.14;100.00;58812.66;5038584;28;69617;-56
2023/03/22 07:45:15;;;;;;;;;8.33;4.67;;;;;-147.14;100.00;58812.66;5020690;28;45664;-57
2023/03/22 07:47:41;;;;;;;;;7.67;6.00;;;;;-147.14;100.00;58812.66;5050747;28;45867;-56
2023/03/22 07:50:08;;;;;;;;;8.00;5.00;;;;;-147.14;100.00;58812.66;5013484;28;45497;-56
2023/03/22 07:52:33;;;;;;;;;7.33;4.00;;;;;-147.14;100.00;58812.66;5015811;28;45583;-48
2023/03/22 07:54:59;;;;;;;;;4.00;3.67;;;;;-147.14;100.00;58812.66;5034967;28;45474;-53
2023/03/22 07:57:24;;;;;;;;;4.33;4.33;;;;;-147.14;100.00;58812.66;5001182;28;64660;-52
2023/03/22 07:59:49;;;;;;;;;5.67;4.00;;;;;-147.14;100.00;58812.66;5038452;28;63697;-53
2023/03/22 08:02:15;;;;;;;;;7.33;5.00;;;;;-147.14;100.00;58812.66;5014878;28;63723;-55
2023/03/22 08:04:40;;;;;;;;;5.00;3.00;;;;;-147.14;100.00;58812.66;5019979;28;45513;-54
2023/03/22 08:07:08;;;;;;;;;3.00;3.00;;;;;-147.14;100.00;58812.66;5016845;28;45380;-55
2023/03/22 08:09:34;;;;;;;;;5.33;3.00;;;;;-147.14;100.00;58812.66;5038524;28;46205;-54
2023/03/22 08:12:00;;;;;;;;;7.00;4.00;;;;;-147.14;100.00;58812.66;5020469;28;45451;-53
2023/03/22 08:14:25;;;;;;;;;6.00;4.00;;;;;-147.14;100.00;58812.66;5021666;28;45455;-51
2023/03/22 08:16:51;;;;;;;;;6.00;3.00;;;;;-147.14;100.00;58812.66;5038656;28;45812;-54
2023/03/22 08:19:16;;;;;;;;;6.00;4.00;;;;;-147.14;100.00;58812.66;5039247;28;45415;-54
2023/03/22 08:21:41;;;;;;;;;5.00;3.67;;;;;-147.14;100.00;58812.66;5019456;28;70471;-54
2023/03/22 08:24:07;;;;;;;;;3.00;3.00;;;;;-147.14;100.00;58812.66;5034150;28;45833;-55
2023/03/22 08:26:32;;;;;;;;;4.00;3.00;;;;;-147.14;100.00;58812.66;5021100;28;45567;-53
2023/03/22 08:28:58;;;;;;;;;4.00;4.00;;;;;-147.14;100.00;58812.66;5041574;28;47068;-55
2023/03/22 08:31:24;;;;;;;;;4.00;4.00;;;;;-147.14;100.00;58812.66;5020234;28;45306;-53
2023/03/22 08:33:49;;;;;;;;;7.33;4.00;;;;;-147.14;100.00;58812.66;5035587;28;57128;-52
2023/03/22 08:36:17;;;;;;;;;5.67;4.67;;;;;-147.14;100.00;58812.66;5018756;28;45711;-54
2023/03/22 08:38:44;;;;;;;;;3.33;3.33;;;;;-147.14;100.00;58812.66;5001722;28;46830;-53
2023/03/22 08:41:11;;;;;;;;;4.33;4.00;;;;;-147.14;100.00;58812.66;5036109;28;45384;-53
2023/03/22 08:43:36;;;;;;;;;9.00;5.00;;;;;-147.14;100.00;58812.66;5012726;28;45522;-52
2023/03/22 08:46:02;;;;;;;;;3.67;3.67;;;;;-147.14;100.00;58812.66;5017207;28;54250;-53
2023/03/22 08:48:29;;;;;;;;;6.00;6.00;;;;;-147.14;100.00;58812.66;5033585;28;60715;-50
2023/03/22 08:50:55;;;;;;;;;4.00;4.00;;;;;-147.14;100.00;58812.66;5034898;28;45308;-52
2023/03/22 08:53:20;;;;;;;;;4.00;4.00;;;;;-147.14;100.00;58812.66;5031871;28;45852;-53
2023/03/22 08:55:46;;;;;;;;;4.00;4.00;;;;;-147.14;100.00;58812.66;5003539;28;45570;-53
2023/03/22 08:58:12;;;;;;;;;11.67;4.33;;;;;-147.14;100.00;58812.66;5019522;28;46772;-53
2023/03/22 09:00:38;;;;;;;;;3.33;2.00;;;;;-147.14;100.00;58812.66;5015445;28;45387;-53
2023/03/22 09:03:03;;;;;;;;;7.33;4.00;;;;;-147.14;100.00;58812.66;5020124;28;45478;-52
2023/03/22 09:05:29;;;;;;;;;4.67;4.00;;;;;-147.14;100.00;58812.66;5019992;28;45448;-54
2023/03/22 09:07:55;;;;;;;;;4.00;4.00;;;;;-147.14;100.00;58812.66;5018280;28;46908;-53
2023/03/22 09:10:21;;;;;;;;;3.00;3.00;;;;;-147.14;100.00;58812.66;5037239;28;45438;-53
2023/03/22 09:12:47;;;;;;;;;4.00;4.00;;;;;-147.14;100.00;58812.66;5038153;28;45335;-51
2023/03/22 09:15:12;;;;;;;;;4.00;3.33;;;;;-147.14;100.00;58812.66;5002467;28;45648;-53
2023/03/22 09:17:38;;;;;;;;;6.00;4.00;;;;;-147.14;100.00;58812.66;5037112;28;58022;-54
2023/03/22 09:20:03;;;;;;;;;5.33;3.33;;;;;-147.14;100.00;58812.66;5037626;28;45367;-53
2023/03/22 09:22:29;;;;;;;;;5.00;5.00;;;;;-147.14;100.00;58812.66;5037968;28;45280;-53
2023/03/22 09:24:55;;;;;;;;;4.00;4.00;;;;;-147.14;100.00;58812.66;5035250;28;45289;-53
2023/03/22 09:27:20;;;;;;;;;6.00;5.00;;;;;-147.14;100.00;58812.66;5019500;28;46510;-53
2023/03/22 09:29:45;;;;;;;;;8.00;4.33;;;;;-147.14;100.00;58812.66;5019133;28;64819;-53
2023/03/22 09:32:11;;;;;;;;;7.00;5.67;;;;;-147.14;100.00;58812.66;5036853;28;67413;-54
2023/03/22 09:34:36;;;;;;;;;4.00;4.00;;;;;-147.14;100.00;58812.66;5019763;28;45865;-54
2023/03/22 09:37:02;;;;;;;;;4.33;4.00;;;;;-147.14;100.00;58812.66;5018111;28;57145;-53
2023/03/22 09:39:28;;;;;;;;;5.00;4.67;;;;;-147.14;100.00;58812.66;5018534;28;45542;-53
2023/03/22 09:41:56;;;;;;;;;4.00;4.00;;;;;-147.14;100.00;58812.66;5019413;28;45360;-56
2023/03/22 09:44:35;;;;;;;;;4.67;4.67;;;;;-147.14;100.00;58812.66;5019627;28;45566;-54
2023/03/22 09:47:04;;;;;;;;;7.00;3.00;;;;;-147.14;100.00;58812.66;5018097;28;46412;-53
2023/03/22 09:49:34;;;;;;;;;6.33;4.00;;;;;-147.14;100.00;58812.66;5019517;28;45612;-54
2023/03/22 09:52:00;;;;;;;;;4.00;3.00;;;;;-147.14;100.00;58812.66;5019093;28;45381;-54
2023/03/22 09:54:32;;;;;;;;;5.00;4.00;;;;;-147.14;100.00;58812.66;5019743;28;45170;-54
2023/03/22 09:57:05;;;;;;;;;5.00;5.00;;;;;-147.14;100.00;58812.66;5000635;28;47188;-55
2023/03/22 09:59:41;;;;;;;;;7.33;4.67;;;;;-147.14;100.00;58812.66;4995222;28;45430;-53
2023/03/22 10:02:20;;;;;;;;;7.67;6.33;;;;;-147.14;100.00;58812.66;5028678;28;45437;-53
2023/03/22 10:05:23;;;;;;;;;6.00;4.67;;;;;-147.14;100.00;58812.66;5033899;28;45576;-51
2023/03/22 10:07:59;;;;;;;;;4.67;4.67;;;;;-147.14;100.00;58812.66;5019128;28;47269;-51
2023/03/22 10:10:25;;;;;;;;;4.00;4.00;;;;;-147.14;100.00;58812.66;4991525;28;45557;-54
2023/03/22 10:12:59;;;;;;;;;5.33;4.00;;;;;-147.14;100.00;58812.66;5000023;28;45557;-54
2023/03/22 10:15:36;;;;;;;;;4.00;3.67;;;;;-147.14;100.00;58812.66;5018235;28;45305;-53
2023/03/22 10:18:05;;;;;;;;;5.67;5.00;;;;;-147.14;100.00;58812.66;5035950;28;45475;-54
2023/03/22 10:20:56;;;;;;;;;2.00;2.00;;;;;-147.14;100.00;58812.66;5033646;28;45369;-54
2023/03/22 10:23:48;;;;;;;;;4.33;4.00;;;;;-147.14;100.00;58812.66;5031728;28;45236;-55
2023/03/22 10:26:20;;;;;;;;;7.00;7.00;;;;;-147.14;100.00;58812.66;5021018;28;45367;-55
2023/03/22 10:28:52;;;;;;;;;7.67;4.67;;;;;-147.14;100.00;58812.66;5019535;28;46156;-54
2023/03/22 10:31:20;;;;;;;;;6.00;4.67;;;;;-147.14;100.00;58812.66;5019531;28;45340;-55
2023/03/22 10:33:53;;;;;;;;;5.33;5.00;;;;;-147.14;100.00;58812.66;5022334;28;45626;-55
2023/03/22 10:36:21;;;;;;;;;6.00;6.00;;;;;-147.14;100.00;58812.66;5023763;28;45384;-55
2023/03/22 10:39:00;;;;;;;;;3.33;3.33;;;;;-147.14;100.00;58812.66;5014713;28;46381;-55
2023/03/22 10:41:27;;;;;;;;;5.67;4.33;;;;;-147.14;100.00;58812.66;5039549;28;45321;-55
2023/03/22 10:43:57;;;;;;;;;6.33;5.00;;;;;-147.14;100.00;58812.66;5039971;28;62986;-55
2023/03/22 10:46:25;;;;;;;;;7.00;5.67;;;;;-147.14;100.00;58812.66;5034857;28;45771;-54
2023/03/22 10:48:56;;;;;;;;;8.00;6.00;;;;;-147.14;100.00;58812.66;5024427;28;45385;-54
2023/03/22 10:51:44;;;;;;;;;7.33;4.67;;;;;-147.14;100.00;58812.66;5023977;28;45382;-54
2023/03/22 10:54:12;;;;;;;;;8.00;6.00;;;;;-147.14;100.00;58812.66;5021014;28;45408;-55
2023/03/22 10:56:38;;;;;;;;;8.33;6.00;;;;;-147.14;100.00;58812.66;5023109;28;45503;-54
2023/03/22 10:59:04;;;;;;;;;2.33;2.33;;;;;-147.14;100.00;58812.66;5018494;28;54169;-53
2023/03/22 11:01:37;;;;;;;;;6.00;5.00;;;;;-147.14;100.00;58812.66;4996821;28;45692;-55
2023/03/22 11:04:03;;;;;;;;;8.67;8.00;;;;;-147.14;100.00;58812.66;5020845;28;45361;-54
2023/03/22 11:06:31;;;;;;;;;7.33;6.00;;;;;-147.14;100.00;58812.66;5017254;28;45439;-55
2023/03/22 11:08:59;;;;;;;;;6.67;6.00;;;;;-147.14;100.00;58812.66;5002651;28;45645;-54
2023/03/22 11:11:35;;;;;;;;;8.00;6.00;;;;;-147.14;100.00;58812.66;5022454;28;45491;-54
2023/03/22 11:14:12;;;;;;;;;6.00;5.00;;;;;-147.14;100.00;58812.66;5009726;28;45412;-53
2023/03/22 11:16:48;;;;;;;;;9.00;6.00;;;;;-147.14;100.00;58812.66;5005214;28;45648;-55
2023/03/22 11:19:37;;;;;;;;;6.00;5.67;;;;;-147.14;100.00;58812.66;5021498;28;45491;-55
2023/03/22 11:22:15;;;;;;;;;6.00;5.00;;;;;-147.14;100.00;58812.66;5002037;28;45332;-55
2023/03/22 11:24:40;;;;;;;;;4.33;4.00;;;;;-147.14;100.00;58812.66;4995248;28;45506;-56
2023/03/22 11:27:15;;;;;;;;;5.33;5.00;;;;;-147.14;100.00;58812.66;5002330;28;45527;-53
2023/03/22 11:29:44;;;;;;;;;6.33;5.33;;;;;-147.14;100.00;58812.66;4998000;28;47080;-56
2023/03/22 11:32:25;;;;;;;;;11.00;7.00;;;;;-147.14;100.00;58812.66;5005797;28;45548;-54
2023/03/22 11:35:19;;;;;;;;;5.00;5.00;;;;;-147.14;100.00;58812.66;4994447;28;45736;-54
2023/03/22 11:37:47;;;;;;;;;7.00;4.67;;;;;-147.14;100.00;58812.66;5022116;28;45712;-54
2023/03/22 11:40:23;;;;;;;;;5.00;4.00;;;;;-147.14;100.00;58812.66;5022160;28;46477;-55
2023/03/22 11:42:52;;;;;;;;;9.00;6.33;;;;;-147.14;100.00;58812.66;5019931;28;45473;-54
2023/03/22 11:45:31;;;;;;;;;9.00;5.33;;;;;-147.14;100.00;58812.66;4998244;28;45578;-55
2023/03/22 11:48:12;;;;;;;;;5.00;5.00;;;;;-147.14;100.00;58812.66;5001760;28;45403;-54
2023/03/22 11:50:40;;;;;;;;;7.67;5.00;;;;;-147.14;100.00;58812.66;5001745;28;46289;-55
2023/03/22 11:53:11;;;;;;;;;7.33;7.33;;;;;-147.14;100.00;58812.66;4980887;28;45442;-54
2023/03/22 11:55:37;;;;;;;;;5.33;4.67;;;;;-147.14;100.00;58812.66;4989253;28;46932;-54
2023/03/22 11:58:03;;;;;;;;;5.00;5.00;;;;;-147.14;100.00;58812.66;5016191;28;68998;-53
2023/03/22 12:00:31;;;;;;;;;9.00;5.67;;;;;-147.14;100.00;58812.66;5002033;28;46419;-54
2023/03/22 12:03:08;;;;;;;;;8.33;4.67;;;;;-147.14;100.00;58812.66;5036601;28;46435;-54
2023/03/22 12:05:36;;;;;;;;;4.00;4.00;;;;;-147.14;100.00;58812.66;5018144;28;45191;-54
2023/03/22 12:08:09;;;;;;;;;5.67;5.33;;;;;-147.14;100.00;58812.66;5027094;28;45480;-54
2023/03/22 12:10:40;;;;;;;;;7.00;5.67;;;;;-147.14;100.00;58812.66;5038930;28;45399;-54
2023/03/22 12:13:16;;;;;;;;;5.67;4.67;;;;;-147.14;100.00;58812.66;5032119;28;45407;-54
2023/03/22 12:15:47;;;;;;;;;5.67;2.67;;;;;-147.14;100.00;58812.66;5018525;28;45720;-55
2023/03/22 12:18:15;;;;;;;;;4.67;4.67;;;;;-147.14;100.00;58812.66;5015692;28;45421;-53
2023/03/22 12:20:52;;;;;;;;;3.67;3.67;;;;;-147.14;100.00;58812.66;5029349;28;47068;-54
2023/03/22 12:23:20;;;;;;;;;6.67;4.67;;;;;-147.14;100.00;58812.66;5028513;28;45697;-55
2023/03/22 12:26:03;;;;;;;;;5.00;5.00;;;;;-147.14;100.00;58812.66;5022727;28;47675;-52
2023/03/22 12:28:39;;;;;;;;;5.33;3.33;;;;;-147.14;100.00;58812.66;5019493;28;46773;-54
2023/03/22 12:31:10;;;;;;;;;5.67;4.00;;;;;-147.14;100.00;58812.66;5015910;28;45351;-54
2023/03/22 12:33:42;;;;;;;;;3.67;3.67;;;;;-147.14;100.00;58812.66;5010494;28;45436;-54
2023/03/22 12:36:15;;;;;;;;;4.33;4.33;;;;;-147.14;100.00;58812.66;5013298;28;45466;-54
2023/03/22 12:38:57;;;;;;;;;6.33;3.67;;;;;-147.14;100.00;58812.66;5017213;28;45585;-54
2023/03/22 12:41:41;;;;;;;;;5.00;4.33;;;;;-147.14;100.00;58812.66;5007766;28;45526;-54
2023/03/22 12:44:25;;;;;;;;;9.33;5.67;;;;;-147.14;100.00;58812.66;5025817;28;45363;-55
2023/03/22 12:46:57;;;;;;;;;4.67;3.33;;;;;-147.14;100.00;58812.66;5031593;28;45491;-54
2023/03/22 12:50:05;;;;;;;;;3.00;3.00;;;;;-147.14;100.00;58812.66;5020318;28;45763;-54
2023/03/22 12:52:35;;;;;;;;;4.00;4.00;;;;;-147.14;100.00;58812.66;4924401;28;47350;-53
2023/03/22 12:55:02;;;;;;;;;3.67;2.67;;;;;-147.14;100.00;58812.66;4918092;28;46509;-57
2023/03/22 12:57:28;;;;;;;;;6.00;5.67;;;;;-147.14;100.00;58812.66;4975668;28;45330;-54
2023/03/22 12:59:56;;;;;;;;;5.33;4.00;;;;;-147.14;100.00;58812.66;5032612;28;45598;-53
2023/03/22 13:02:28;;;;;;;;;5.33;5.33;;;;;-147.14;100.00;58812.66;5019595;28;45643;-54
2023/03/22 13:04:59;;;;;;;;;6.00;4.00;;;;;-147.14;100.00;58812.66;5014031;28;45445;-54
2023/03/22 13:07:31;;;;;;;;;2.00;2.00;;;;;-147.14;100.00;58812.66;5032318;28;45964;-54
2023/03/22 13:09:58;;;;;;;;;4.00;3.67;;;;;-147.14;100.00;58812.66;5034889;28;45604;-54
2023/03/22 13:12:26;;;;;;;;;4.67;3.33;;;;;-147.14;100.00;58812.66;5016768;28;46193;-54
2023/03/22 13:14:51;;;;;;;;;5.00;4.00;;;;;-147.14;100.00;58812.66;5042850;28;45442;-56
2023/03/22 13:17:22;;;;;;;;;7.33;4.67;;;;;-147.14;100.00;58812.66;5035754;28;45637;-56
2023/03/22 13:20:06;;;;;;;;;4.00;4.00;;;;;-147.14;100.00;58812.66;5036075;28;45619;-55
2023/03/22 13:22:37;;;;;;;;;2.00;2.00;;;;;-147.14;100.00;58812.66;5038712;28;45806;-54
2023/03/22 13:25:09;;;;;;;;;8.67;4.00;;;;;-147.14;100.00;58812.66;5035831;28;45547;-54
2023/03/22 13:27:50;;;;;;;;;7.33;5.33;;;;;-147.14;100.00;58812.66;5018417;28;45400;-55
2023/03/22 13:30:46;;;;;;;;;5.00;4.00;;;;;-147.14;100.00;58812.66;5030278;28;45404;-54
2023/03/22 13:33:18;;;;;;;;;3.67;3.67;;;;;-147.14;100.00;58812.66;5009883;28;45561;-54
2023/03/22 13:35:53;;;;;;;;;6.33;4.00;;;;;-147.14;100.00;58812.66;5030204;28;45669;-54
2023/03/22 13:38:21;;;;;;;;;6.00;4.00;;;;;-147.14;100.00;58812.66;5031378;28;45508;-54
2023/03/22 13:41:08;;;;;;;;;6.00;6.00;;;;;-147.14;100.00;58812.66;5035282;28;47012;-54
2023/03/22 13:44:03;;;;;;;;;5.67;3.67;;;;;-147.14;100.00;58812.66;5019081;28;48133;-54
2023/03/22 13:46:43;;;;;;;;;5.67;5.00;;;;;-147.14;100.00;58812.66;4997164;28;45621;-54
2023/03/22 13:49:22;;;;;;;;;4.00;4.00;;;;;-147.14;100.00;58812.66;5017184;28;45395;-54
2023/03/22 13:51:48;;;;;;;;;5.33;4.00;;;;;-147.14;100.00;58812.66;5035079;28;45738;-54
2023/03/22 13:54:15;;;;;;;;;7.33;4.67;;;;;-147.14;100.00;58812.66;5015686;28;45510;-57
2023/03/22 13:56:40;;;;;;;;;4.00;4.00;;;;;-147.14;100.00;58812.66;5028655;28;45924;-55
2023/03/22 13:59:09;;;;;;;;;5.00;3.33;;;;;-147.14;100.00;58812.66;5036050;28;45695;-55
2023/03/22 14:01:37;;;;;;;;;5.67;4.00;;;;;-147.14;100.00;58812.66;5016620;28;45544;-54
2023/03/22 14:04:09;;;;;;;;;4.67;4.67;;;;;-147.14;100.00;58812.66;5035329;28;46575;-55
2023/03/22 14:06:46;;;;;;;;;7.33;5.00;;;;;-147.14;100.00;58812.66;5049934;28;45426;-54
2023/03/22 14:09:22;;;;;;;;;5.00;5.00;;;;;-147.14;100.00;58812.66;5016559;28;45654;-53
2023/03/22 14:12:18;;;;;;;;;6.00;3.00;;;;;-147.14;100.00;58812.66;5017416;28;45452;-54
2023/03/22 14:14:48;;;;;;;;;4.67;4.00;;;;;-147.14;100.00;58812.66;5005154;28;46416;-55
2023/03/22 14:17:19;;;;;;;;;8.00;7.00;;;;;-147.14;100.00;58812.66;5014511;28;45403;-54
2023/03/22 14:19:45;;;;;;;;;9.33;5.33;;;;;-147.14;100.00;58812.66;5036092;28;45451;-54
2023/03/22 14:22:16;;;;;;;;;5.00;5.00;;;;;-147.14;100.00;58812.66;5012053;28;46152;-54
2023/03/22 14:24:41;;;;;;;;;5.33;4.33;;;;;-147.14;100.00;58812.66;5017923;28;46568;-54
2023/03/22 14:27:08;;;;;;;;;5.33;3.67;;;;;-147.14;100.00;58812.66;5017574;28;67529;-55
2023/03/22 14:29:45;;;;;;;;;7.00;5.33;;;;;-147.14;100.00;58812.66;5017234;28;45494;-55
2023/03/22 14:32:23;;;;;;;;;6.00;5.33;;;;;-147.14;100.00;58812.66;5017957;28;46099;-56
2023/03/22 14:35:05;;;;;;;;;7.00;5.33;;;;;-147.14;100.00;58812.66;5002159;28;48245;-55
2023/03/22 14:37:31;;;;;;;;;4.67;4.67;;;;;-147.14;100.00;58812.66;5020808;28;45476;-55
2023/03/22 14:39:58;;;;;;;;;6.67;6.67;;;;;-147.14;100.00;58812.66;4995813;28;61394;-55
2023/03/22 14:42:31;;;;;;;;;5.00;5.00;;;;;-147.14;100.00;58812.66;5034657;28;45460;-55
2023/03/22 14:45:00;;;;;;;;;6.33;6.00;;;;;-147.14;100.00;58812.66;5015135;28;45503;-57
2023/03/22 14:47:37;;;;;;;;;7.67;6.00;;;;;-147.14;100.00;58812.66;5028483;28;45602;-55
2023/03/22 14:50:07;;;;;;;;;5.00;5.00;;;;;-147.14;100.00;58812.66;5026224;28;46631;-55
2023/03/22 14:52:34;;;;;;;;;4.00;4.00;;;;;-147.14;100.00;58812.66;5007161;28;45321;-55
2023/03/22 14:55:02;;;;;;;;;4.00;3.00;;;;;-147.14;100.00;58812.66;5011922;28;45996;-55
2023/03/22 14:57:31;;;;;;;;;4.00;4.00;;;;;-147.14;100.00;58812.66;5012798;28;45698;-55
2023/03/22 14:59:58;;;;;;;;;4.00;4.00;;;;;-147.14;100.00;58812.66;5015941;28;47347;-55
2023/03/22 15:02:26;;;;;;;;;4.33;4.00;;;;;-147.14;100.00;58812.66;5035329;28;45510;-54
2023/03/22 15:04:51;;;;;;;;;8.00;4.33;;;;;-147.14;100.00;58812.66;5032145;28;45355;-55
2023/03/22 15:07:18;;;;;;;;;4.00;4.00;;;;;-147.14;100.00;58812.66;5026291;28;65250;-54
2023/03/22 15:09:45;;;;;;;;;6.67;4.33;;;;;-147.14;100.00;58812.66;5014764;28;45558;-52
2023/03/22 15:12:11;;;;;;;;;3.00;3.00;;;;;-147.14;100.00;58812.66;4998671;28;46004;-56
2023/03/22 15:14:36;;;;;;;;;5.00;5.00;;;;;-147.14;100.00;58812.66;5008982;28;47462;-55
2023/03/22 15:17:05;;;;;;;;;5.33;5.00;;;;;-147.14;100.00;58812.66;5022166;28;58125;-56
2023/03/22 15:19:36;;;;;;;;;3.00;3.00;;;;;-147.14;100.00;58812.66;5001921;28;45810;-55
2023/03/22 15:22:13;;;;;;;;;5.00;4.00;;;;;-147.14;100.00;58812.66;5038159;28;45415;-56
2023/03/22 15:24:40;;;;;;;;;5.67;5.00;;;;;-147.14;100.00;58812.66;5020185;28;45642;-56
2023/03/22 15:27:11;;;;;;;;;3.00;3.00;;;;;-147.14;100.00;58812.66;5030834;28;45499;-56
2023/03/22 15:29:40;;;;;;;;;4.33;4.33;;;;;-147.14;100.00;58812.66;5030592;28;45318;-56
2023/03/22 15:32:15;;;;;;;;;6.00;5.67;;;;;-147.14;100.00;58812.66;5016325;28;45556;-57
2023/03/22 15:34:40;;;;;;;;;6.00;4.67;;;;;-147.14;100.00;58812.66;5028508;28;45474;-57
2023/03/22 15:37:14;;;;;;;;;6.33;4.33;;;;;-147.14;100.00;58812.66;5023838;28;45479;-57
2023/03/22 15:39:40;;;;;;;;;3.67;3.67;;;;;-147.14;100.00;58812.66;5021293;28;45487;-57
2023/03/22 15:42:15;;;;;;;;;5.00;3.67;;;;;-147.14;100.00;58812.66;5038205;28;45619;-57
2023/03/22 15:44:49;;;;;;;;;6.33;4.00;;;;;-147.14;100.00;58812.66;5040400;28;45238;-56
2023/03/22 15:47:16;;;;;;;;;4.00;3.00;;;;;-147.14;100.00;58812.66;5037606;28;45394;-56
2023/03/22 15:49:48;;;;;;;;;4.67;4.33;;;;;-147.14;100.00;58812.66;5040736;28;45309;-56
2023/03/22 15:52:14;;;;;;;;;4.00;3.00;;;;;-147.14;100.00;58812.66;5029591;28;45415;-56
2023/03/22 15:55:00;;;;;;;;;5.33;4.00;;;;;-147.14;100.00;58812.66;5025991;28;47461;-55
2023/03/22 15:57:39;;;;;;;;;4.67;3.33;;;;;-147.14;100.00;58812.66;5013581;28;45410;-56
2023/03/22 16:00:10;;;;;;;;;4.00;3.33;;;;;-147.14;100.00;58812.66;5038914;28;45616;-56
2023/03/22 16:02:49;;;;;;;;;5.67;5.67;;;;;-147.14;100.00;58812.66;5040203;28;45605;-56
2023/03/22 16:05:15;;;;;;;;;4.00;4.00;;;;;-147.14;100.00;58812.66;5035085;28;45335;-56
2023/03/22 16:07:40;;;;;;;;;3.67;2.33;;;;;-147.14;100.00;58812.66;5035658;28;73050;-56
2023/03/22 16:10:06;;;;;;;;;3.67;3.00;;;;;-147.14;100.00;58812.66;5037231;28;64985;-56
2023/03/22 16:12:31;;;;;;;;;3.00;3.00;;;;;-147.14;100.00;58812.66;5021999;28;45554;-55
2023/03/22 16:14:57;;;;;;;;;2.67;2.67;;;;;-147.14;100.00;58812.66;5020703;28;74647;-56
2023/03/22 16:17:24;;;;;;;;;4.00;2.00;;;;;-147.14;100.00;58812.66;5022486;28;45424;-56
2023/03/22 16:19:50;;;;;;;;;4.00;4.00;;;;;-147.14;100.00;58812.66;5022282;28;45488;-56
2023/03/22 16:22:19;;;;;;;;;3.00;3.00;;;;;-147.14;100.00;58812.66;5040254;28;45209;-56
2023/03/22 16:24:47;;;;;;;;;4.67;2.33;;;;;-147.14;100.00;58812.66;5039841;28;45503;-56
2023/03/22 16:27:16;;;;;;;;;2.33;2.33;;;;;-147.14;100.00;58812.66;5022077;28;45780;-56
2023/03/22 16:29:41;;;;;;;;;3.33;3.00;;;;;-147.14;100.00;58812.66;5004972;28;45265;-58
2023/03/22 16:32:22;;;;;;;;;5.00;5.00;;;;;-147.14;100.00;58812.66;5039368;28;45713;-57
2023/03/22 16:34:48;;;;;;;;;4.67;3.00;;;;;-147.14;100.00;58812.66;5022058;28;45530;-56
2023/03/22 16:37:24;;;;;;;;;3.67;2.00;;;;;-147.14;100.00;58812.66;5021654;28;45733;-58
2023/03/22 16:39:50;;;;;;;;;4.67;2.33;;;;;-147.14;100.00;58812.66;5020807;28;45395;-58
2023/03/22 16:42:18;;;;;;;;;3.00;1.67;;;;;-147.14;100.00;58812.66;5019265;28;45580;-56
2023/03/22 16:44:45;;;;;;;;;2.00;2.00;;;;;-147.14;100.00;58812.66;5021743;28;45559;-57
2023/03/22 16:47:12;;;;;;;;;4.33;2.00;;;;;-147.14;100.00;58812.66;5021404;28;45586;-56
2023/03/22 16:49:38;;;;;;;;;3.00;1.67;;;;;-147.14;100.00;58812.66;5033975;28;45464;-56
2023/03/22 16:52:03;;;;;;;;;2.33;2.00;;;;;-147.14;100.00;58812.66;5039067;28;45671;-55
2023/03/22 16:54:29;;;;;;;;;5.00;3.00;;;;;-147.14;100.00;58812.66;5039097;28;47233;-56
2023/03/22 16:56:54;;;;;;;;;1.67;1.67;;;;;-147.14;100.00;58812.66;5039111;28;45571;-56
2023/03/22 16:59:19;;;;;;;;;1.00;1.00;;;;;-147.14;100.00;58812.66;5039520;28;46027;-57
2023/03/22 17:01:45;;;;;;;;;3.67;2.00;;;;;-147.14;100.00;58812.66;5039398;28;45267;-57
2023/03/22 17:04:10;;;;;;;;;2.00;2.00;;;;;-147.14;100.00;58812.66;5037859;28;70365;-57
2023/03/22 17:06:35;;;;;;;;;5.00;2.00;;;;;-147.14;100.00;58812.66;5038423;28;70107;-56
2023/03/22 17:09:00;;;;;;;;;2.67;2.67;;;;;-147.14;100.00;58812.66;5038236;28;64529;-56
2023/03/22 17:11:28;;;;;;;;;4.00;2.33;;;;;-147.14;100.00;58812.66;5038288;28;67977;-56
2023/03/22 17:13:57;;;;;;;;;2.00;2.00;;;;;-147.14;100.00;58812.66;5021152;28;46228;-56
2023/03/22 17:16:22;;;;;;;;;4.00;3.00;;;;;-147.14;100.00;58812.66;5001243;28;45426;-57
2023/03/22 17:18:48;;;;;;;;;2.00;2.00;;;;;-147.14;100.00;58812.66;5017559;28;64082;-57
2023/03/22 17:21:17;;;;;;;;;3.00;2.67;;;;;-147.14;100.00;58812.66;5038643;28;45625;-56